sensor_id;sensor_type;location;lat;lon;timestamp;temperature;humidity
13721;DHT22;6932;51.438;5.470;2023-04-08T00:02:22;15.50;85.60
13721;DHT22;6932;51.438;5.470;2023-04-08T00:04:48;15.50;85.60
13721;DHT22;6932;51.438;5.470;2023-04-08T00:07:13;15.50;85.70
13721;DHT22;6932;51.438;5.470;2023-04-08T00:09:39;15.50;85.80
13721;DHT22;6932;51.438;5.470;2023-04-08T00:12:05;15.50;85.80
13721;DHT22;6932;51.438;5.470;2023-04-08T00:14:34;15.50;85.90
13721;DHT22;6932;51.438;5.470;2023-04-08T00:17:02;15.50;85.90
13721;DHT22;6932;51.438;5.470;2023-04-08T00:19:28;15.50;85.90
13721;DHT22;6932;51.438;5.470;2023-04-08T00:25:07;15.50;86.00
13721;DHT22;6932;51.438;5.470;2023-04-08T00:27:34;15.50;85.90
13721;DHT22;6932;51.438;5.470;2023-04-08T00:29:59;15.50;86.00
13721;DHT22;6932;51.438;5.470;2023-04-08T00:32:26;15.50;86.10
13721;DHT22;6932;51.438;5.470;2023-04-08T00:34:52;15.50;86.10
13721;DHT22;6932;51.438;5.470;2023-04-08T00:37:18;15.50;86.20
13721;DHT22;6932;51.438;5.470;2023-04-08T00:39:44;15.50;86.20
13721;DHT22;6932;51.438;5.470;2023-04-08T00:42:10;15.50;86.30
13721;DHT22;6932;51.438;5.470;2023-04-08T00:44:35;15.50;86.30
13721;DHT22;6932;51.438;5.470;2023-04-08T00:47:02;15.50;86.40
13721;DHT22;6932;51.438;5.470;2023-04-08T00:49:30;15.50;86.40
13721;DHT22;6932;51.438;5.470;2023-04-08T00:51:57;15.60;86.50
13721;DHT22;6932;51.438;5.470;2023-04-08T00:54:23;15.60;86.50
13721;DHT22;6932;51.438;5.470;2023-04-08T00:56:49;15.60;86.50
13721;DHT22;6932;51.438;5.470;2023-04-08T00:59:16;15.60;86.60
13721;DHT22;6932;51.438;5.470;2023-04-08T01:05:16;15.60;86.60
13721;DHT22;6932;51.438;5.470;2023-04-08T01:07:48;15.60;86.70
13721;DHT22;6932;51.438;5.470;2023-04-08T01:10:22;15.60;86.60
13721;DHT22;6932;51.438;5.470;2023-04-08T01:12:57;15.60;86.70
13721;DHT22;6932;51.438;5.470;2023-04-08T01:15:27;15.60;86.70
13721;DHT22;6932;51.438;5.470;2023-04-08T01:17:55;15.60;86.70
13721;DHT22;6932;51.438;5.470;2023-04-08T01:20:24;15.60;86.80
13721;DHT22;6932;51.438;5.470;2023-04-08T01:25:35;15.60;87.00
13721;DHT22;6932;51.438;5.470;2023-04-08T01:28:11;15.60;87.10
13721;DHT22;6932;51.438;5.470;2023-04-08T01:30:40;15.60;87.10
13721;DHT22;6932;51.438;5.470;2023-04-08T01:33:09;15.50;87.20
13721;DHT22;6932;51.438;5.470;2023-04-08T01:35:37;15.60;87.30
13721;DHT22;6932;51.438;5.470;2023-04-08T01:38:06;15.50;87.40
13721;DHT22;6932;51.438;5.470;2023-04-08T01:40:34;15.50;87.50
13721;DHT22;6932;51.438;5.470;2023-04-08T01:43:05;15.60;87.70
13721;DHT22;6932;51.438;5.470;2023-04-08T01:45:33;15.60;87.80
13721;DHT22;6932;51.438;5.470;2023-04-08T01:48:00;15.50;87.80
13721;DHT22;6932;51.438;5.470;2023-04-08T01:50:27;15.50;87.90
13721;DHT22;6932;51.438;5.470;2023-04-08T01:52:56;15.50;87.90
13721;DHT22;6932;51.438;5.470;2023-04-08T01:55:25;15.50;88.00
13721;DHT22;6932;51.438;5.470;2023-04-08T01:57:53;15.50;88.10
13721;DHT22;6932;51.438;5.470;2023-04-08T02:00:26;15.50;88.10
13721;DHT22;6932;51.438;5.470;2023-04-08T02:28:51;15.30;88.90
13721;DHT22;6932;51.438;5.470;2023-04-08T02:31:18;15.30;89.10
13721;DHT22;6932;51.438;5.470;2023-04-08T02:33:45;15.30;89.20
13721;DHT22;6932;51.438;5.470;2023-04-08T02:36:13;15.30;89.40
13721;DHT22;6932;51.438;5.470;2023-04-08T02:38:40;15.30;89.50
13721;DHT22;6932;51.438;5.470;2023-04-08T02:41:06;15.30;89.70
13721;DHT22;6932;51.438;5.470;2023-04-08T02:43:31;15.30;89.70
13721;DHT22;6932;51.438;5.470;2023-04-08T02:45:58;15.30;89.80
13721;DHT22;6932;51.438;5.470;2023-04-08T02:48:27;15.30;90.00
13721;DHT22;6932;51.438;5.470;2023-04-08T02:50:53;15.30;90.00
13721;DHT22;6932;51.438;5.470;2023-04-08T02:53:19;15.30;90.10
13721;DHT22;6932;51.438;5.470;2023-04-08T02:55:46;15.30;90.10
13721;DHT22;6932;51.438;5.470;2023-04-08T02:58:12;15.30;90.00
13721;DHT22;6932;51.438;5.470;2023-04-08T03:00:38;15.30;90.00
13721;DHT22;6932;51.438;5.470;2023-04-08T03:03:04;15.30;90.10
13721;DHT22;6932;51.438;5.470;2023-04-08T03:05:31;15.30;90.10
13721;DHT22;6932;51.438;5.470;2023-04-08T03:07:58;15.30;90.10
13721;DHT22;6932;51.438;5.470;2023-04-08T03:10:23;15.30;90.10
13721;DHT22;6932;51.438;5.470;2023-04-08T03:12:49;15.30;90.20
13721;DHT22;6932;51.438;5.470;2023-04-08T03:15:15;15.30;90.20
13721;DHT22;6932;51.438;5.470;2023-04-08T03:17:41;15.30;90.20
13721;DHT22;6932;51.438;5.470;2023-04-08T03:20:07;15.40;90.30
13721;DHT22;6932;51.438;5.470;2023-04-08T03:22:34;15.30;90.30
13721;DHT22;6932;51.438;5.470;2023-04-08T03:25:00;15.30;90.40
13721;DHT22;6932;51.438;5.470;2023-04-08T03:27:26;15.30;90.40
13721;DHT22;6932;51.438;5.470;2023-04-08T03:29:52;15.40;90.50
13721;DHT22;6932;51.438;5.470;2023-04-08T03:32:18;15.40;90.50
13721;DHT22;6932;51.438;5.470;2023-04-08T03:34:44;15.40;90.50
13721;DHT22;6932;51.438;5.470;2023-04-08T03:37:10;15.40;90.60
13721;DHT22;6932;51.438;5.470;2023-04-08T03:39:37;15.40;90.60
13721;DHT22;6932;51.438;5.470;2023-04-08T03:42:03;15.40;90.70
13721;DHT22;6932;51.438;5.470;2023-04-08T03:44:29;15.40;90.70
13721;DHT22;6932;51.438;5.470;2023-04-08T03:46:54;15.40;90.70
13721;DHT22;6932;51.438;5.470;2023-04-08T03:49:20;15.40;90.70
13721;DHT22;6932;51.438;5.470;2023-04-08T03:51:46;15.40;90.70
13721;DHT22;6932;51.438;5.470;2023-04-08T03:54:11;15.40;90.70
13721;DHT22;6932;51.438;5.470;2023-04-08T03:56:37;15.40;90.80
13721;DHT22;6932;51.438;5.470;2023-04-08T03:59:03;15.40;90.80
13721;DHT22;6932;51.438;5.470;2023-04-08T04:01:29;15.40;90.80
13721;DHT22;6932;51.438;5.470;2023-04-08T04:03:56;15.40;90.80
13721;DHT22;6932;51.438;5.470;2023-04-08T04:06:22;15.40;90.80
13721;DHT22;6932;51.438;5.470;2023-04-08T04:08:48;15.40;90.80
13721;DHT22;6932;51.438;5.470;2023-04-08T04:11:15;15.40;90.80
13721;DHT22;6932;51.438;5.470;2023-04-08T04:13:41;15.40;90.80
13721;DHT22;6932;51.438;5.470;2023-04-08T04:19:47;15.40;91.00
13721;DHT22;6932;51.438;5.470;2023-04-08T04:22:13;15.40;90.90
13721;DHT22;6932;51.438;5.470;2023-04-08T04:24:39;15.40;90.90
13721;DHT22;6932;51.438;5.470;2023-04-08T04:27:04;15.40;91.00
13721;DHT22;6932;51.438;5.470;2023-04-08T04:29:30;15.40;91.00
13721;DHT22;6932;51.438;5.470;2023-04-08T04:31:56;15.40;91.00
13721;DHT22;6932;51.438;5.470;2023-04-08T04:34:22;15.40;91.00
13721;DHT22;6932;51.438;5.470;2023-04-08T04:36:47;15.40;91.10
13721;DHT22;6932;51.438;5.470;2023-04-08T04:39:13;15.40;91.10
13721;DHT22;6932;51.438;5.470;2023-04-08T04:41:39;15.40;91.10
13721;DHT22;6932;51.438;5.470;2023-04-08T04:44:05;15.40;91.10
13721;DHT22;6932;51.438;5.470;2023-04-08T04:46:31;15.40;91.10
13721;DHT22;6932;51.438;5.470;2023-04-08T04:49:22;15.40;91.10
13721;DHT22;6932;51.438;5.470;2023-04-08T04:51:47;15.40;91.20
13721;DHT22;6932;51.438;5.470;2023-04-08T04:54:13;15.40;91.10
13721;DHT22;6932;51.438;5.470;2023-04-08T04:56:39;15.40;91.20
13721;DHT22;6932;51.438;5.470;2023-04-08T04:59:05;15.40;91.20
13721;DHT22;6932;51.438;5.470;2023-04-08T05:01:31;15.40;91.20
13721;DHT22;6932;51.438;5.470;2023-04-08T05:03:56;15.40;91.20
13721;DHT22;6932;51.438;5.470;2023-04-08T05:06:22;15.40;91.20
13721;DHT22;6932;51.438;5.470;2023-04-08T05:08:48;15.40;91.20
13721;DHT22;6932;51.438;5.470;2023-04-08T05:11:16;15.40;91.20
13721;DHT22;6932;51.438;5.470;2023-04-08T05:13:43;15.40;91.20
13721;DHT22;6932;51.438;5.470;2023-04-08T05:16:09;15.40;91.20
13721;DHT22;6932;51.438;5.470;2023-04-08T05:18:35;15.40;91.30
13721;DHT22;6932;51.438;5.470;2023-04-08T05:21:01;15.40;91.30
13721;DHT22;6932;51.438;5.470;2023-04-08T05:23:27;15.40;91.30
13721;DHT22;6932;51.438;5.470;2023-04-08T05:25:53;15.40;91.40
13721;DHT22;6932;51.438;5.470;2023-04-08T05:28:56;15.40;91.40
13721;DHT22;6932;51.438;5.470;2023-04-08T05:31:22;15.40;91.50
13721;DHT22;6932;51.438;5.470;2023-04-08T05:33:47;15.40;91.40
13721;DHT22;6932;51.438;5.470;2023-04-08T05:36:13;15.40;91.40
13721;DHT22;6932;51.438;5.470;2023-04-08T05:42:20;15.40;91.50
13721;DHT22;6932;51.438;5.470;2023-04-08T05:44:46;15.50;91.40
13721;DHT22;6932;51.438;5.470;2023-04-08T05:47:12;15.40;91.40
13721;DHT22;6932;51.438;5.470;2023-04-08T05:53:45;15.40;91.50
13721;DHT22;6932;51.438;5.470;2023-04-08T05:56:11;15.50;91.40
13721;DHT22;6932;51.438;5.470;2023-04-08T05:58:37;15.40;91.50
13721;DHT22;6932;51.438;5.470;2023-04-08T06:01:02;15.40;91.50
13721;DHT22;6932;51.438;5.470;2023-04-08T06:03:30;15.50;91.50
13721;DHT22;6932;51.438;5.470;2023-04-08T06:05:56;15.40;91.50
13721;DHT22;6932;51.438;5.470;2023-04-08T06:08:22;15.50;91.50
13721;DHT22;6932;51.438;5.470;2023-04-08T06:10:49;15.50;91.40
13721;DHT22;6932;51.438;5.470;2023-04-08T06:13:16;15.50;91.40
13721;DHT22;6932;51.438;5.470;2023-04-08T06:15:42;15.50;91.30
13721;DHT22;6932;51.438;5.470;2023-04-08T06:18:08;15.50;91.30
13721;DHT22;6932;51.438;5.470;2023-04-08T06:20:34;15.50;91.20
13721;DHT22;6932;51.438;5.470;2023-04-08T06:23:00;15.50;91.20
13721;DHT22;6932;51.438;5.470;2023-04-08T06:25:26;15.50;91.40
13721;DHT22;6932;51.438;5.470;2023-04-08T06:27:52;15.50;91.10
13721;DHT22;6932;51.438;5.470;2023-04-08T06:30:18;15.60;91.40
13721;DHT22;6932;51.438;5.470;2023-04-08T06:32:44;15.60;91.00
13721;DHT22;6932;51.438;5.470;2023-04-08T06:35:12;15.60;91.00
13721;DHT22;6932;51.438;5.470;2023-04-08T06:37:38;15.60;90.90
13721;DHT22;6932;51.438;5.470;2023-04-08T06:43:25;15.60;90.80
13721;DHT22;6932;51.438;5.470;2023-04-08T06:45:57;15.70;90.60
13721;DHT22;6932;51.438;5.470;2023-04-08T06:48:24;15.60;90.50
13721;DHT22;6932;51.438;5.470;2023-04-08T06:50:58;15.60;90.40
13721;DHT22;6932;51.438;5.470;2023-04-08T06:53:26;15.60;90.30
13721;DHT22;6932;51.438;5.470;2023-04-08T06:56:24;15.60;90.20
13721;DHT22;6932;51.438;5.470;2023-04-08T06:58:51;15.60;90.10
13721;DHT22;6932;51.438;5.470;2023-04-08T07:01:17;15.70;90.00
13721;DHT22;6932;51.438;5.470;2023-04-08T07:03:43;15.60;90.00
13721;DHT22;6932;51.438;5.470;2023-04-08T07:06:09;15.60;90.10
13721;DHT22;6932;51.438;5.470;2023-04-08T07:08:34;15.70;90.10
13721;DHT22;6932;51.438;5.470;2023-04-08T07:11:00;15.70;90.10
13721;DHT22;6932;51.438;5.470;2023-04-08T07:13:27;15.80;90.20
13721;DHT22;6932;51.438;5.470;2023-04-08T07:15:53;15.80;90.00
13721;DHT22;6932;51.438;5.470;2023-04-08T07:18:19;15.90;90.00
13721;DHT22;6932;51.438;5.470;2023-04-08T07:21:20;15.90;89.80
13721;DHT22;6932;51.438;5.470;2023-04-08T07:23:45;15.90;89.60
13721;DHT22;6932;51.438;5.470;2023-04-08T07:26:11;16.00;89.40
13721;DHT22;6932;51.438;5.470;2023-04-08T07:28:37;16.00;89.30
13721;DHT22;6932;51.438;5.470;2023-04-08T07:31:14;16.10;89.20
13721;DHT22;6932;51.438;5.470;2023-04-08T07:33:42;16.10;89.10
13721;DHT22;6932;51.438;5.470;2023-04-08T07:36:09;16.20;89.10
13721;DHT22;6932;51.438;5.470;2023-04-08T07:38:36;16.20;88.90
13721;DHT22;6932;51.438;5.470;2023-04-08T07:41:02;16.20;88.80
13721;DHT22;6932;51.438;5.470;2023-04-08T07:43:30;16.30;88.60
13721;DHT22;6932;51.438;5.470;2023-04-08T07:46:00;16.30;88.40
13721;DHT22;6932;51.438;5.470;2023-04-08T07:48:33;16.30;88.30
13721;DHT22;6932;51.438;5.470;2023-04-08T07:51:17;16.30;88.10
13721;DHT22;6932;51.438;5.470;2023-04-08T07:53:42;16.30;88.00
13721;DHT22;6932;51.438;5.470;2023-04-08T07:56:13;16.40;87.80
13721;DHT22;6932;51.438;5.470;2023-04-08T07:58:39;16.30;87.70
13721;DHT22;6932;51.438;5.470;2023-04-08T08:01:24;16.30;88.30
13721;DHT22;6932;51.438;5.470;2023-04-08T08:03:52;16.30;87.50
13721;DHT22;6932;51.438;5.470;2023-04-08T08:06:18;16.30;87.50
13721;DHT22;6932;51.438;5.470;2023-04-08T08:08:43;16.30;87.60
13721;DHT22;6932;51.438;5.470;2023-04-08T08:11:09;16.30;87.50
13721;DHT22;6932;51.438;5.470;2023-04-08T08:13:35;16.30;87.40
13721;DHT22;6932;51.438;5.470;2023-04-08T08:16:01;16.30;87.40
13721;DHT22;6932;51.438;5.470;2023-04-08T08:18:28;16.30;87.40
13721;DHT22;6932;51.438;5.470;2023-04-08T08:20:54;16.30;87.60
13721;DHT22;6932;51.438;5.470;2023-04-08T08:23:20;16.30;87.70
13721;DHT22;6932;51.438;5.470;2023-04-08T08:25:46;16.30;87.50
13721;DHT22;6932;51.438;5.470;2023-04-08T08:28:12;16.30;87.50
13721;DHT22;6932;51.438;5.470;2023-04-08T08:30:38;16.30;87.50
13721;DHT22;6932;51.438;5.470;2023-04-08T08:33:03;16.30;87.60
13721;DHT22;6932;51.438;5.470;2023-04-08T08:35:30;16.30;87.60
13721;DHT22;6932;51.438;5.470;2023-04-08T08:37:55;16.30;87.60
13721;DHT22;6932;51.438;5.470;2023-04-08T08:40:21;16.40;87.60
13721;DHT22;6932;51.438;5.470;2023-04-08T08:42:51;16.40;87.50
13721;DHT22;6932;51.438;5.470;2023-04-08T08:45:18;16.40;87.20
13721;DHT22;6932;51.438;5.470;2023-04-08T08:47:44;16.40;87.20
13721;DHT22;6932;51.438;5.470;2023-04-08T08:50:10;16.40;87.30
13721;DHT22;6932;51.438;5.470;2023-04-08T08:52:36;16.40;87.30
13721;DHT22;6932;51.438;5.470;2023-04-08T08:55:02;16.40;87.40
13721;DHT22;6932;51.438;5.470;2023-04-08T08:57:28;16.40;87.40
13721;DHT22;6932;51.438;5.470;2023-04-08T08:59:54;16.40;87.40
13721;DHT22;6932;51.438;5.470;2023-04-08T09:02:30;16.40;87.30
13721;DHT22;6932;51.438;5.470;2023-04-08T09:05:03;16.40;87.20
13721;DHT22;6932;51.438;5.470;2023-04-08T09:07:37;16.40;87.20
13721;DHT22;6932;51.438;5.470;2023-04-08T09:10:06;16.40;87.00
13721;DHT22;6932;51.438;5.470;2023-04-08T09:12:32;16.40;87.00
13721;DHT22;6932;51.438;5.470;2023-04-08T09:22:06;16.40;86.40
13721;DHT22;6932;51.438;5.470;2023-04-08T09:24:33;16.40;86.20
13721;DHT22;6932;51.438;5.470;2023-04-08T09:26:59;16.40;86.80
13721;DHT22;6932;51.438;5.470;2023-04-08T09:29:25;16.40;86.30
13721;DHT22;6932;51.438;5.470;2023-04-08T09:31:59;16.40;86.20
13721;DHT22;6932;51.438;5.470;2023-04-08T09:34:27;16.40;86.20
13721;DHT22;6932;51.438;5.470;2023-04-08T09:36:54;16.40;86.90
13721;DHT22;6932;51.438;5.470;2023-04-08T09:43:12;16.40;86.30
13721;DHT22;6932;51.438;5.470;2023-04-08T09:45:44;16.40;86.00
13721;DHT22;6932;51.438;5.470;2023-04-08T09:55:35;16.50;86.20
13721;DHT22;6932;51.438;5.470;2023-04-08T09:58:15;16.50;86.20
13721;DHT22;6932;51.438;5.470;2023-04-08T10:00:48;16.60;86.50
13721;DHT22;6932;51.438;5.470;2023-04-08T10:03:29;16.60;86.60
13721;DHT22;6932;51.438;5.470;2023-04-08T10:06:00;16.60;86.40
13721;DHT22;6932;51.438;5.470;2023-04-08T10:08:27;16.60;86.30
13721;DHT22;6932;51.438;5.470;2023-04-08T10:10:56;16.70;86.40
13721;DHT22;6932;51.438;5.470;2023-04-08T10:17:25;16.70;86.30
13721;DHT22;6932;51.438;5.470;2023-04-08T10:19:52;16.80;86.20
13721;DHT22;6932;51.438;5.470;2023-04-08T10:22:47;16.80;86.00
13721;DHT22;6932;51.438;5.470;2023-04-08T10:50:58;17.00;85.40
13721;DHT22;6932;51.438;5.470;2023-04-08T10:53:33;17.10;85.60
13721;DHT22;6932;51.438;5.470;2023-04-08T10:56:10;17.10;86.30
13721;DHT22;6932;51.438;5.470;2023-04-08T10:58:50;17.20;85.80
13721;DHT22;6932;51.438;5.470;2023-04-08T11:01:18;17.40;85.20
13721;DHT22;6932;51.438;5.470;2023-04-08T11:03:44;17.50;85.40
13721;DHT22;6932;51.438;5.470;2023-04-08T11:06:10;17.60;85.60
13721;DHT22;6932;51.438;5.470;2023-04-08T11:16:08;18.00;84.60
13721;DHT22;6932;51.438;5.470;2023-04-08T11:18:36;18.10;83.70
13721;DHT22;6932;51.438;5.470;2023-04-08T11:21:04;18.20;83.70
13721;DHT22;6932;51.438;5.470;2023-04-08T11:23:33;18.30;83.60
13721;DHT22;6932;51.438;5.470;2023-04-08T11:26:01;18.40;83.30
13721;DHT22;6932;51.438;5.470;2023-04-08T11:28:27;18.60;82.90
13721;DHT22;6932;51.438;5.470;2023-04-08T11:30:54;18.60;82.20
13721;DHT22;6932;51.438;5.470;2023-04-08T11:33:20;18.70;82.00
13721;DHT22;6932;51.438;5.470;2023-04-08T11:50:39;19.10;80.00
13721;DHT22;6932;51.438;5.470;2023-04-08T11:53:20;19.10;78.40
13721;DHT22;6932;51.438;5.470;2023-04-08T11:55:49;19.20;77.20
13721;DHT22;6932;51.438;5.470;2023-04-08T11:58:15;19.20;77.70
13721;DHT22;6932;51.438;5.470;2023-04-08T12:00:42;19.20;78.40
13721;DHT22;6932;51.438;5.470;2023-04-08T12:03:08;19.30;78.60
13721;DHT22;6932;51.438;5.470;2023-04-08T12:05:35;19.30;78.20
13721;DHT22;6932;51.438;5.470;2023-04-08T12:08:01;19.40;78.00
13721;DHT22;6932;51.438;5.470;2023-04-08T12:14:18;19.50;77.70
13721;DHT22;6932;51.438;5.470;2023-04-08T12:16:46;19.60;76.80
13721;DHT22;6932;51.438;5.470;2023-04-08T12:19:12;19.60;75.70
13721;DHT22;6932;51.438;5.470;2023-04-08T12:21:37;19.60;76.00
13721;DHT22;6932;51.438;5.470;2023-04-08T12:24:03;19.60;75.90
13721;DHT22;6932;51.438;5.470;2023-04-08T12:26:29;19.60;75.00
13721;DHT22;6932;51.438;5.470;2023-04-08T12:28:55;19.60;74.80
13721;DHT22;6932;51.438;5.470;2023-04-08T12:31:21;19.60;74.30
13721;DHT22;6932;51.438;5.470;2023-04-08T12:33:47;19.60;74.20
13721;DHT22;6932;51.438;5.470;2023-04-08T12:36:13;19.60;74.30
13721;DHT22;6932;51.438;5.470;2023-04-08T12:38:38;19.60;74.30
13721;DHT22;6932;51.438;5.470;2023-04-08T12:41:04;19.60;74.30
13721;DHT22;6932;51.438;5.470;2023-04-08T12:43:30;19.70;73.40
13721;DHT22;6932;51.438;5.470;2023-04-08T13:00:48;19.70;70.00
13721;DHT22;6932;51.438;5.470;2023-04-08T13:03:14;19.70;69.50
13721;DHT22;6932;51.438;5.470;2023-04-08T13:05:42;19.60;68.30
13721;DHT22;6932;51.438;5.470;2023-04-08T13:08:09;19.60;67.60
13721;DHT22;6932;51.438;5.470;2023-04-08T13:10:36;19.50;67.60
13721;DHT22;6932;51.438;5.470;2023-04-08T13:13:02;19.60;68.00
13721;DHT22;6932;51.438;5.470;2023-04-08T13:15:28;19.60;68.20
13721;DHT22;6932;51.438;5.470;2023-04-08T13:21:44;19.70;68.70
13721;DHT22;6932;51.438;5.470;2023-04-08T13:24:09;19.70;67.80
13721;DHT22;6932;51.438;5.470;2023-04-08T13:26:35;19.80;67.80
13721;DHT22;6932;51.438;5.470;2023-04-08T13:29:01;19.80;67.60
13721;DHT22;6932;51.438;5.470;2023-04-08T13:31:27;19.80;67.50
13721;DHT22;6932;51.438;5.470;2023-04-08T13:33:52;19.90;67.50
13721;DHT22;6932;51.438;5.470;2023-04-08T13:36:18;19.90;67.40
13721;DHT22;6932;51.438;5.470;2023-04-08T13:38:44;20.00;68.20
13721;DHT22;6932;51.438;5.470;2023-04-08T13:55:54;20.10;67.60
13721;DHT22;6932;51.438;5.470;2023-04-08T13:58:21;20.10;68.10
13721;DHT22;6932;51.438;5.470;2023-04-08T14:00:47;20.00;68.20
13721;DHT22;6932;51.438;5.470;2023-04-08T14:03:13;20.00;68.30
13721;DHT22;6932;51.438;5.470;2023-04-08T14:05:38;20.00;68.50
13721;DHT22;6932;51.438;5.470;2023-04-08T14:08:04;20.00;68.50
13721;DHT22;6932;51.438;5.470;2023-04-08T14:10:30;19.90;68.50
13721;DHT22;6932;51.438;5.470;2023-04-08T14:16:45;19.90;68.80
13721;DHT22;6932;51.438;5.470;2023-04-08T14:19:11;19.90;68.10
13721;DHT22;6932;51.438;5.470;2023-04-08T14:21:38;19.80;69.00
13721;DHT22;6932;51.438;5.470;2023-04-08T14:24:04;19.80;68.40
13721;DHT22;6932;51.438;5.470;2023-04-08T14:26:31;19.70;68.40
13721;DHT22;6932;51.438;5.470;2023-04-08T14:29:02;19.70;67.60
13721;DHT22;6932;51.438;5.470;2023-04-08T14:31:29;19.70;67.30
13721;DHT22;6932;51.438;5.470;2023-04-08T14:33:56;19.60;67.40
13721;DHT22;6932;51.438;5.470;2023-04-08T14:51:15;19.50;65.10
13721;DHT22;6932;51.438;5.470;2023-04-08T14:53:41;19.40;64.40
13721;DHT22;6932;51.438;5.470;2023-04-08T14:56:07;19.40;64.80
13721;DHT22;6932;51.438;5.470;2023-04-08T14:58:33;19.30;64.30
13721;DHT22;6932;51.438;5.470;2023-04-08T15:00:59;19.30;63.40
13721;DHT22;6932;51.438;5.470;2023-04-08T15:03:24;19.30;63.30
13721;DHT22;6932;51.438;5.470;2023-04-08T15:05:50;19.30;62.00
13721;DHT22;6932;51.438;5.470;2023-04-08T15:08:16;19.20;61.00
13721;DHT22;6932;51.438;5.470;2023-04-08T15:25:35;18.70;62.50
13721;DHT22;6932;51.438;5.470;2023-04-08T15:28:01;18.60;63.20
13721;DHT22;6932;51.438;5.470;2023-04-08T15:30:27;18.60;64.40
13721;DHT22;6932;51.438;5.470;2023-04-08T15:32:53;18.60;63.70
13721;DHT22;6932;51.438;5.470;2023-04-08T15:35:18;18.60;63.80
13721;DHT22;6932;51.438;5.470;2023-04-08T15:37:45;18.60;63.80
13721;DHT22;6932;51.438;5.470;2023-04-08T15:40:10;18.60;64.20
13721;DHT22;6932;51.438;5.470;2023-04-08T15:42:36;18.60;64.30
13721;DHT22;6932;51.438;5.470;2023-04-08T15:48:43;18.70;64.30
13721;DHT22;6932;51.438;5.470;2023-04-08T15:51:08;18.70;63.70
13721;DHT22;6932;51.438;5.470;2023-04-08T15:53:36;18.70;63.90
13721;DHT22;6932;51.438;5.470;2023-04-08T15:56:02;18.70;64.80
13721;DHT22;6932;51.438;5.470;2023-04-08T15:58:28;18.60;64.70
13721;DHT22;6932;51.438;5.470;2023-04-08T16:00:54;18.60;63.90
13721;DHT22;6932;51.438;5.470;2023-04-08T16:03:22;18.60;63.80
13721;DHT22;6932;51.438;5.470;2023-04-08T16:09:38;18.60;64.20
13721;DHT22;6932;51.438;5.470;2023-04-08T16:12:04;18.60;64.20
13721;DHT22;6932;51.438;5.470;2023-04-08T16:14:30;18.70;64.30
13721;DHT22;6932;51.438;5.470;2023-04-08T16:16:56;18.80;64.20
13721;DHT22;6932;51.438;5.470;2023-04-08T16:19:21;18.80;64.30
13721;DHT22;6932;51.438;5.470;2023-04-08T16:21:47;18.90;64.30
13721;DHT22;6932;51.438;5.470;2023-04-08T16:24:13;19.00;64.20
13721;DHT22;6932;51.438;5.470;2023-04-08T16:26:39;19.00;63.90
13721;DHT22;6932;51.438;5.470;2023-04-08T16:29:05;19.10;63.70
13721;DHT22;6932;51.438;5.470;2023-04-08T16:31:31;19.10;63.80
13721;DHT22;6932;51.438;5.470;2023-04-08T16:33:57;19.20;63.50
13721;DHT22;6932;51.438;5.470;2023-04-08T16:36:23;19.20;63.40
13721;DHT22;6932;51.438;5.470;2023-04-08T16:42:30;19.20;63.20
13721;DHT22;6932;51.438;5.470;2023-04-08T16:44:57;19.30;62.90
13721;DHT22;6932;51.438;5.470;2023-04-08T16:47:24;19.30;63.00
13721;DHT22;6932;51.438;5.470;2023-04-08T16:49:51;19.30;62.80
13721;DHT22;6932;51.438;5.470;2023-04-08T16:52:20;19.30;63.10
13721;DHT22;6932;51.438;5.470;2023-04-08T16:54:46;19.30;63.00
13721;DHT22;6932;51.438;5.470;2023-04-08T16:57:12;19.30;63.20
13721;DHT22;6932;51.438;5.470;2023-04-08T16:59:37;19.20;63.10
13721;DHT22;6932;51.438;5.470;2023-04-08T17:02:03;19.30;62.90
13721;DHT22;6932;51.438;5.470;2023-04-08T17:04:29;19.20;62.80
13721;DHT22;6932;51.438;5.470;2023-04-08T17:06:55;19.20;62.70
13721;DHT22;6932;51.438;5.470;2023-04-08T17:09:21;19.20;62.70
13721;DHT22;6932;51.438;5.470;2023-04-08T17:11:47;19.20;62.70
13721;DHT22;6932;51.438;5.470;2023-04-08T17:14:13;19.20;62.70
13721;DHT22;6932;51.438;5.470;2023-04-08T17:16:38;19.20;62.60
13721;DHT22;6932;51.438;5.470;2023-04-08T17:22:54;19.10;62.50
13721;DHT22;6932;51.438;5.470;2023-04-08T17:25:20;19.20;62.00
13721;DHT22;6932;51.438;5.470;2023-04-08T17:27:46;19.10;62.20
13721;DHT22;6932;51.438;5.470;2023-04-08T17:30:12;19.10;62.40
13721;DHT22;6932;51.438;5.470;2023-04-08T17:32:38;19.10;62.60
13721;DHT22;6932;51.438;5.470;2023-04-08T17:35:03;19.10;63.00
13721;DHT22;6932;51.438;5.470;2023-04-08T17:37:29;19.00;63.20
13721;DHT22;6932;51.438;5.470;2023-04-08T17:39:55;19.00;63.70
13721;DHT22;6932;51.438;5.470;2023-04-08T17:46:02;19.00;64.60
13721;DHT22;6932;51.438;5.470;2023-04-08T17:48:28;19.00;65.60
13721;DHT22;6932;51.438;5.470;2023-04-08T17:54:34;18.90;66.70
13721;DHT22;6932;51.438;5.470;2023-04-08T18:00:40;18.90;67.90
13721;DHT22;6932;51.438;5.470;2023-04-08T18:03:06;18.90;68.60
13721;DHT22;6932;51.438;5.470;2023-04-08T18:05:33;18.80;69.30
13721;DHT22;6932;51.438;5.470;2023-04-08T18:07:59;18.80;69.70
13721;DHT22;6932;51.438;5.470;2023-04-08T18:10:24;18.70;70.10
13721;DHT22;6932;51.438;5.470;2023-04-08T18:12:50;18.70;70.50
13721;DHT22;6932;51.438;5.470;2023-04-08T18:15:16;18.60;70.80
13721;DHT22;6932;51.438;5.470;2023-04-08T18:25:04;18.50;71.80
13721;DHT22;6932;51.438;5.470;2023-04-08T18:31:12;18.30;72.30
13721;DHT22;6932;51.438;5.470;2023-04-08T18:33:38;18.30;72.60
13721;DHT22;6932;51.438;5.470;2023-04-08T18:36:08;18.30;72.80
13721;DHT22;6932;51.438;5.470;2023-04-08T18:38:36;18.20;73.10
13721;DHT22;6932;51.438;5.470;2023-04-08T18:41:04;18.20;73.20
13721;DHT22;6932;51.438;5.470;2023-04-08T18:43:31;18.20;73.30
13721;DHT22;6932;51.438;5.470;2023-04-08T18:45:58;18.10;73.40
13721;DHT22;6932;51.438;5.470;2023-04-08T18:48:24;18.10;74.30
13721;DHT22;6932;51.438;5.470;2023-04-08T18:50:50;18.10;73.70
13721;DHT22;6932;51.438;5.470;2023-04-08T18:53:15;18.00;73.90
13721;DHT22;6932;51.438;5.470;2023-04-08T18:55:41;18.00;74.10
13721;DHT22;6932;51.438;5.470;2023-04-08T18:58:09;18.00;74.10
13721;DHT22;6932;51.438;5.470;2023-04-08T19:00:36;18.00;74.20
13721;DHT22;6932;51.438;5.470;2023-04-08T19:07:07;17.90;74.40
13721;DHT22;6932;51.438;5.470;2023-04-08T19:13:14;17.90;74.50
13721;DHT22;6932;51.438;5.470;2023-04-08T19:15:40;17.90;74.40
13721;DHT22;6932;51.438;5.470;2023-04-08T19:18:06;17.80;74.50
13721;DHT22;6932;51.438;5.470;2023-04-08T19:20:31;17.80;74.60
13721;DHT22;6932;51.438;5.470;2023-04-08T19:22:57;17.80;74.80
13721;DHT22;6932;51.438;5.470;2023-04-08T19:25:23;17.80;74.90
13721;DHT22;6932;51.438;5.470;2023-04-08T19:31:39;17.70;75.20
13721;DHT22;6932;51.438;5.470;2023-04-08T19:34:05;17.70;75.20
13721;DHT22;6932;51.438;5.470;2023-04-08T19:36:31;17.70;75.20
13721;DHT22;6932;51.438;5.470;2023-04-08T19:38:57;17.70;75.40
13721;DHT22;6932;51.438;5.470;2023-04-08T19:41:22;17.70;75.40
13721;DHT22;6932;51.438;5.470;2023-04-08T19:43:48;17.60;75.40
13721;DHT22;6932;51.438;5.470;2023-04-08T19:46:14;17.60;75.50